createdAt,value
2023-04-05T00:00:57.174Z,101216.25
2023-04-05T00:03:25.641Z,101254.25
2023-04-05T00:05:54.776Z,101248.66
2023-04-05T00:08:26.781Z,101244.41
2023-04-05T00:10:54.725Z,101250.41
2023-04-05T00:13:22.870Z,101251.38
2023-04-05T00:15:50.920Z,101246.72
2023-04-05T00:18:23.849Z,101245.03
2023-04-05T00:20:52.687Z,101224.41
2023-04-05T00:23:21.368Z,101240.38
2023-04-05T00:25:49.745Z,101217.22
2023-04-05T00:28:17.940Z,101215.38
2023-04-05T00:30:45.909Z,101253.56
2023-04-05T00:33:14.337Z,101245.59
2023-04-05T00:35:43.488Z,101256.09
2023-04-05T00:38:11.333Z,101258.06
2023-04-05T00:40:39.426Z,101255.84
2023-04-05T00:43:07.918Z,101257.47
2023-04-05T00:45:36.012Z,101240.63
2023-04-05T00:48:04.649Z,101126.25
2023-04-05T00:50:32.893Z,101239.75
2023-04-05T00:53:02.122Z,101251.34
2023-04-05T00:55:30.180Z,101255.56
2023-04-05T00:57:57.996Z,101231.72
2023-04-05T01:00:27.467Z,101217.53
2023-04-05T01:03:01.899Z,101236.72
2023-04-05T01:05:38.053Z,101228.59
2023-04-05T01:08:13.492Z,101216.09
2023-04-05T01:10:47.078Z,101233.75
2023-04-05T01:13:17.437Z,101228.53
2023-04-05T01:15:45.121Z,101225.84
2023-04-05T01:18:13.989Z,101219.53
2023-04-05T01:20:53.655Z,101224.97
2023-04-05T01:23:38.388Z,101215.13
2023-04-05T01:26:44.273Z,101231.94
2023-04-05T01:29:47.531Z,101228.41
2023-04-05T01:32:25.251Z,101065.19
2023-04-05T01:35:00.142Z,101216.88
2023-04-05T01:37:32.848Z,101215.09
2023-04-05T01:40:01.324Z,101207.00
2023-04-05T01:42:29.181Z,101197.94
2023-04-05T01:44:59.307Z,101064.06
2023-04-05T01:47:28.419Z,101212.38
2023-04-05T01:49:56.703Z,101178.50
2023-04-05T01:52:26.966Z,101206.81
2023-04-05T01:54:54.861Z,101182.19
2023-04-05T01:57:22.627Z,101209.56
2023-04-05T01:59:50.492Z,101204.25
2023-04-05T02:02:18.487Z,101177.53
2023-04-05T02:04:47.609Z,101145.47
2023-04-05T02:07:16.303Z,101193.28
2023-04-05T02:09:44.124Z,101196.97
2023-04-05T02:12:13.778Z,101192.31
2023-04-05T02:14:41.590Z,101197.25
2023-04-05T02:17:09.701Z,101200.84
2023-04-05T02:19:40.916Z,101191.06
2023-04-05T02:22:10.375Z,101196.34
2023-04-05T02:24:38.218Z,101205.16
2023-04-05T02:27:07.394Z,101150.00
2023-04-05T02:29:35.672Z,101198.06
2023-04-05T02:32:03.786Z,101199.84
2023-04-05T02:34:31.736Z,101203.91
2023-04-05T02:36:59.573Z,101196.75
2023-04-05T02:39:29.822Z,101198.22
2023-04-05T02:41:57.770Z,101203.34
2023-04-05T02:44:25.706Z,101202.56
2023-04-05T02:46:54.944Z,101200.88
2023-04-05T02:49:28.500Z,101204.31
2023-04-05T02:51:58.556Z,101174.03
2023-04-05T02:54:27.754Z,101199.94
2023-04-05T02:57:02.381Z,101189.22
2023-04-05T02:59:36.601Z,101187.56
2023-04-05T03:02:05.997Z,101180.47
2023-04-05T03:04:34.546Z,101197.25
2023-04-05T03:07:04.626Z,101192.81
2023-04-05T03:09:38.495Z,101179.72
2023-04-05T03:12:09.396Z,101145.03
2023-04-05T03:14:41.551Z,101119.94
2023-04-05T03:17:14.161Z,101183.78
2023-04-05T03:19:46.447Z,101172.34
2023-04-05T03:22:19.092Z,101173.38
2023-04-05T03:24:48.703Z,101168.22
2023-04-05T03:27:18.874Z,101159.50
2023-04-05T03:30:00.678Z,101144.19
2023-04-05T03:32:30.280Z,101133.56
2023-04-05T03:35:06.862Z,100900.34
2023-04-05T03:37:36.643Z,101151.44
2023-04-05T03:40:10.806Z,101161.84
2023-04-05T03:42:38.797Z,101163.31
2023-04-05T03:45:08.742Z,101139.06
2023-04-05T03:47:37.519Z,101140.81
2023-04-05T03:50:09.284Z,101151.31
2023-04-05T03:52:37.172Z,101161.09
2023-04-05T03:55:07.103Z,101154.88
2023-04-05T03:57:39.174Z,101051.81
2023-04-05T04:00:20.362Z,101171.16
2023-04-05T04:03:04.145Z,101165.84
2023-04-05T04:05:33.032Z,101162.25
2023-04-05T04:08:00.867Z,101161.03
2023-04-05T04:10:28.723Z,101174.09
2023-04-05T04:13:00.745Z,101173.09
2023-04-05T04:15:32.957Z,101158.59
2023-04-05T04:18:19.122Z,101179.25
2023-04-05T04:21:14.996Z,101154.97
2023-04-05T04:24:01.862Z,101158.69
2023-04-05T04:26:58.790Z,101178.41
2023-04-05T04:29:31.263Z,101135.69
2023-04-05T04:32:22.602Z,101175.72
2023-04-05T04:35:18.512Z,101167.69
2023-04-05T04:38:18.884Z,101117.28
2023-04-05T04:41:07.938Z,101172.31
2023-04-05T04:43:45.005Z,101177.59
2023-04-05T04:46:43.718Z,101174.09
2023-04-05T04:49:28.318Z,101168.00
2023-04-05T04:51:58.525Z,101050.69
2023-04-05T04:54:28.888Z,101175.91
2023-04-05T04:56:57.354Z,101177.59
2023-04-05T04:59:25.396Z,101154.88
2023-04-05T05:01:54.665Z,101177.72
2023-04-05T05:04:22.872Z,101156.28
2023-04-05T05:06:52.021Z,101183.13
2023-04-05T05:09:19.863Z,101181.59
2023-04-05T05:11:52.215Z,101164.88
2023-04-05T05:14:19.978Z,101174.44
2023-04-05T05:16:48.380Z,101186.16
2023-04-05T05:19:18.133Z,101195.09
2023-04-05T05:21:50.191Z,101194.31
2023-04-05T05:24:18.044Z,101188.38
2023-04-05T05:26:45.878Z,101184.88
2023-04-05T05:29:13.867Z,101194.81
2023-04-05T05:31:45.246Z,101188.88
2023-04-05T05:34:13.108Z,101188.03
2023-04-05T05:36:47.937Z,101191.75
2023-04-05T05:39:15.950Z,101026.59
2023-04-05T05:41:43.815Z,101172.34
2023-04-05T05:44:14.785Z,101194.63
2023-04-05T05:46:42.810Z,101133.84
2023-04-05T05:49:10.749Z,101184.81
2023-04-05T05:51:38.739Z,101189.75
2023-04-05T05:54:08.096Z,101176.03
2023-04-05T05:56:35.871Z,101184.22
2023-04-05T05:59:03.796Z,101174.06
2023-04-05T06:01:34.407Z,101174.25
2023-04-05T06:04:02.411Z,101176.38
2023-04-05T06:06:31.059Z,101181.56
2023-04-05T06:08:58.869Z,101181.88
2023-04-05T06:11:28.071Z,101146.63
2023-04-05T06:13:55.917Z,101151.50
2023-04-05T06:16:23.994Z,101126.38
2023-04-05T06:18:51.865Z,101163.78
2023-04-05T06:21:19.621Z,101161.19
2023-04-05T06:23:47.508Z,101165.38
2023-04-05T06:26:20.406Z,101154.88
2023-04-05T06:28:49.716Z,101161.09
2023-04-05T06:31:18.215Z,101163.44
2023-04-05T06:33:46.188Z,101166.38
2023-04-05T06:36:14.089Z,101172.78
2023-04-05T06:38:41.842Z,101170.25
2023-04-05T06:41:09.906Z,101168.88
2023-04-05T06:43:37.698Z,101171.50
2023-04-05T06:46:08.868Z,101167.09
2023-04-05T06:48:36.783Z,101128.13
2023-04-05T06:51:05.547Z,101163.47
2023-04-05T06:53:33.480Z,101166.03
2023-04-05T06:56:01.611Z,101172.25
2023-04-05T06:58:29.421Z,101172.34
2023-04-05T07:00:57.378Z,101168.09
2023-04-05T07:03:26.620Z,101147.00
2023-04-05T07:05:56.836Z,101164.97
2023-04-05T07:08:25.103Z,101118.22
2023-04-05T07:10:53.448Z,101160.78
2023-04-05T07:13:23.194Z,101153.75
2023-04-05T07:15:51.379Z,101120.03
2023-04-05T07:18:20.392Z,101127.13
2023-04-05T07:20:50.077Z,101143.22
2023-04-05T07:23:18.346Z,101146.66
2023-04-05T07:25:46.603Z,101136.06
2023-04-05T07:28:14.427Z,101055.41
2023-04-05T07:30:42.482Z,101059.09
2023-04-05T07:33:10.973Z,101131.78
2023-04-05T07:35:38.843Z,101133.63
2023-04-05T07:38:08.138Z,101111.50
2023-04-05T07:40:35.927Z,101135.41
2023-04-05T07:43:03.763Z,101118.53
2023-04-05T07:45:31.563Z,101135.28
2023-04-05T07:47:59.517Z,101141.41
2023-04-05T07:50:27.942Z,101133.41
2023-04-05T07:52:55.773Z,101129.84
2023-04-05T07:55:24.960Z,101064.34
2023-04-05T07:57:52.661Z,101136.78
2023-04-05T08:00:21.389Z,101141.28
2023-04-05T08:02:49.265Z,101123.50
2023-04-05T08:05:17.334Z,101140.16
2023-04-05T08:07:45.329Z,101139.09
2023-04-05T08:10:13.113Z,101138.13
2023-04-05T08:12:42.299Z,101114.84
2023-04-05T08:15:10.958Z,101135.75
2023-04-05T08:17:38.882Z,101134.81
2023-04-05T08:20:08.106Z,101131.34
2023-04-05T08:22:35.856Z,101063.22
2023-04-05T08:25:03.756Z,101132.69
2023-04-05T08:27:31.614Z,101124.34
2023-04-05T08:30:00.818Z,101125.91
2023-04-05T08:32:28.735Z,101132.91
2023-04-05T08:34:56.579Z,101123.75
2023-04-05T08:37:24.315Z,101126.28
2023-04-05T08:39:52.300Z,101121.69
2023-04-05T08:42:27.334Z,101124.91
2023-04-05T08:44:58.839Z,101116.03
2023-04-05T08:47:28.927Z,101116.34
2023-04-05T08:49:57.168Z,101108.75
2023-04-05T08:52:26.579Z,101115.72
2023-04-05T08:54:55.376Z,101117.34
2023-04-05T08:57:27.270Z,101116.75
2023-04-05T08:59:57.246Z,101116.94
2023-04-05T09:02:26.479Z,101103.28
2023-04-05T09:04:56.115Z,100983.25
2023-04-05T09:07:25.008Z,101106.63
2023-04-05T09:09:54.656Z,101115.19
2023-04-05T09:12:24.359Z,101113.75
2023-04-05T09:14:53.190Z,101110.69
2023-04-05T09:17:21.976Z,101097.91
2023-04-05T09:19:50.569Z,101112.06
2023-04-05T09:22:19.765Z,101106.81
2023-04-05T09:24:48.162Z,101102.94
2023-04-05T09:27:20.894Z,101081.78
2023-04-05T09:29:57.022Z,101099.72
2023-04-05T09:32:29.303Z,101102.06
2023-04-05T09:35:01.122Z,101090.16
2023-04-05T09:37:32.328Z,101094.94
2023-04-05T09:40:04.356Z,101098.69
2023-04-05T09:42:44.433Z,101080.31
2023-04-05T09:45:12.949Z,101039.72
2023-04-05T09:47:59.509Z,101043.81
2023-04-05T09:50:27.624Z,101002.25
2023-04-05T09:53:09.661Z,101044.81
2023-04-05T09:55:38.257Z,101074.34
2023-04-05T09:58:06.118Z,101074.94
2023-04-05T10:00:34.246Z,101070.34
2023-04-05T10:03:02.051Z,101055.00
2023-04-05T10:05:30.748Z,101076.19
2023-04-05T10:07:59.060Z,101070.75
2023-04-05T10:10:28.603Z,101070.59
2023-04-05T10:12:57.190Z,101065.72
2023-04-05T10:15:27.953Z,101063.72
2023-04-05T10:18:03.724Z,101061.38
2023-04-05T10:20:35.930Z,101064.66
2023-04-05T10:23:10.136Z,101058.38
2023-04-05T10:25:52.565Z,101065.25
2023-04-05T10:28:31.486Z,101063.22
2023-04-05T10:31:10.047Z,101038.53
2023-04-05T10:33:42.701Z,101048.13
2023-04-05T10:36:18.272Z,101049.00
2023-04-05T10:39:00.479Z,101038.94
2023-04-05T10:41:34.644Z,101059.22
2023-04-05T10:44:14.860Z,101050.25
2023-04-05T10:46:47.537Z,101048.78
2023-04-05T10:49:23.075Z,101040.66
2023-04-05T10:51:51.909Z,101019.91
2023-04-05T10:54:20.903Z,101007.00
2023-04-05T10:56:51.109Z,101004.22
2023-04-05T10:59:19.577Z,101036.63
2023-04-05T11:01:48.460Z,101033.44
2023-04-05T11:04:17.461Z,101035.03
2023-04-05T11:06:47.890Z,101019.00
2023-04-05T11:09:18.122Z,101029.47
2023-04-05T11:11:47.300Z,101030.81
2023-04-05T11:14:25.728Z,100970.50
2023-04-05T11:16:57.007Z,101029.09
2023-04-05T11:19:49.543Z,101024.94
2023-04-05T11:22:27.272Z,101021.44
2023-04-05T11:24:58.175Z,101027.56
2023-04-05T11:27:28.080Z,101015.81
2023-04-05T11:29:58.994Z,101018.81
2023-04-05T11:32:40.285Z,101010.63
2023-04-05T11:35:13.697Z,101009.69
2023-04-05T11:38:06.430Z,101005.41
2023-04-05T11:40:35.313Z,101001.06
2023-04-05T11:43:05.945Z,100996.13
2023-04-05T11:45:36.603Z,100984.31
2023-04-05T11:48:07.239Z,100998.97
2023-04-05T11:50:37.132Z,100996.84
2023-04-05T11:53:12.514Z,100989.06
2023-04-05T11:55:42.009Z,100972.00
2023-04-05T11:58:17.236Z,100984.53
2023-04-05T12:00:47.461Z,100989.06
2023-04-05T12:03:16.158Z,100974.91
2023-04-05T12:05:51.645Z,100979.22
2023-04-05T12:08:20.184Z,100974.38
2023-04-05T12:10:56.070Z,100948.47
2023-04-05T12:13:28.959Z,100969.94
2023-04-05T12:16:00.730Z,100975.31
2023-04-05T12:18:29.712Z,100965.28
2023-04-05T12:20:57.719Z,100952.75
2023-04-05T12:23:26.900Z,100959.63
2023-04-05T12:25:56.662Z,100958.63
2023-04-05T12:28:24.853Z,100835.50
2023-04-05T12:30:54.156Z,100954.34
2023-04-05T12:33:31.065Z,100950.13
2023-04-05T12:35:59.459Z,100956.78
2023-04-05T12:38:28.367Z,100954.34
2023-04-05T12:41:01.191Z,100949.03
2023-04-05T12:43:39.822Z,100939.00
2023-04-05T12:46:10.904Z,100893.63
2023-04-05T12:48:42.777Z,100931.22
2023-04-05T12:51:16.838Z,100933.00
2023-04-05T12:53:48.254Z,100929.19
2023-04-05T12:56:17.635Z,100921.66
2023-04-05T12:58:50.410Z,100899.75
2023-04-05T13:01:19.208Z,100901.94
2023-04-05T13:03:49.959Z,100908.91
2023-04-05T13:06:17.936Z,100903.59
2023-04-05T13:08:45.729Z,100900.69
2023-04-05T13:11:13.518Z,100898.75
2023-04-05T13:13:41.380Z,100901.25
2023-04-05T13:16:09.250Z,100901.38
2023-04-05T13:18:37.146Z,100882.22
2023-04-05T13:21:09.344Z,100902.22
2023-04-05T13:23:37.511Z,100887.72
2023-04-05T13:26:06.089Z,100879.28
2023-04-05T13:28:34.212Z,100882.00
2023-04-05T13:31:02.192Z,100886.00
2023-04-05T13:33:30.044Z,100878.59
2023-04-05T13:35:57.987Z,100885.16
2023-04-05T13:38:27.211Z,100873.41
2023-04-05T13:40:55.392Z,100879.41
2023-04-05T13:43:23.666Z,100879.25
2023-04-05T13:45:51.703Z,100871.91
2023-04-05T13:48:19.402Z,100858.66
2023-04-05T13:50:47.177Z,100871.25
2023-04-05T13:53:15.070Z,100869.31
2023-04-05T13:55:44.209Z,100864.97
2023-04-05T13:58:14.128Z,100866.78
2023-04-05T14:00:42.588Z,100866.47
2023-04-05T14:03:10.925Z,100839.00
2023-04-05T14:05:38.816Z,100855.13
2023-04-05T14:08:06.610Z,100854.88
2023-04-05T14:10:34.420Z,100851.03
2023-04-05T14:13:03.745Z,100856.19
2023-04-05T14:15:31.852Z,100842.47
2023-04-05T14:17:59.787Z,100843.72
2023-04-05T14:20:27.711Z,100843.03
2023-04-05T14:22:55.596Z,100820.59
2023-04-05T14:25:23.511Z,100834.00
2023-04-05T14:27:51.392Z,100840.13
2023-04-05T14:30:21.077Z,100824.00
2023-04-05T14:32:49.038Z,100837.84
2023-04-05T14:35:16.972Z,100823.25
2023-04-05T14:37:44.912Z,100830.59
2023-04-05T14:40:13.125Z,100828.88
2023-04-05T14:42:49.343Z,100819.13
2023-04-05T14:45:17.985Z,100831.31
2023-04-05T14:47:47.407Z,100812.19
2023-04-05T14:50:15.593Z,100815.09
2023-04-05T14:52:43.445Z,100821.47
2023-04-05T14:55:13.402Z,100816.13
2023-04-05T14:57:41.469Z,100814.63
2023-04-05T15:00:10.999Z,100792.16
2023-04-05T15:02:39.073Z,100802.94
2023-04-05T15:05:09.199Z,100809.19
2023-04-05T15:07:37.126Z,100806.06
2023-04-05T15:10:05.770Z,100806.53
2023-04-05T15:12:33.911Z,100789.41
2023-04-05T15:15:02.296Z,100807.34
2023-04-05T15:17:30.618Z,100806.50
2023-04-05T15:19:58.514Z,100797.34
2023-04-05T15:22:27.896Z,100795.38
2023-04-05T15:24:57.101Z,100767.91
2023-04-05T15:27:24.988Z,100798.94
2023-04-05T15:29:52.953Z,100788.56
2023-04-05T15:32:20.850Z,100785.22
2023-04-05T15:34:48.978Z,100783.84
2023-04-05T15:37:16.836Z,100786.41
2023-04-05T15:39:46.126Z,100790.66
2023-04-05T15:42:15.590Z,100789.50
2023-04-05T15:44:43.944Z,100785.16
2023-04-05T15:47:12.089Z,100776.19
2023-04-05T15:49:40.064Z,100777.31
2023-04-05T15:52:08.744Z,100783.75
2023-04-05T15:54:36.758Z,100780.88
2023-04-05T15:57:06.308Z,100771.34
2023-04-05T15:59:34.207Z,100777.47
2023-04-05T16:02:02.301Z,100778.75
2023-04-05T16:04:30.806Z,100765.06
2023-04-05T16:06:58.691Z,100782.72
2023-04-05T16:09:26.677Z,100782.06
2023-04-05T16:11:54.517Z,100775.28
2023-04-05T16:14:23.754Z,100779.50
2023-04-05T16:16:54.269Z,100780.44
2023-04-05T16:19:23.454Z,100779.13
2023-04-05T16:21:52.757Z,100779.06
2023-04-05T16:24:21.208Z,100779.84
2023-04-05T16:26:49.278Z,100773.09
2023-04-05T16:29:17.157Z,100779.75
2023-04-05T16:31:47.408Z,100776.22
2023-04-05T16:34:15.686Z,100778.56
2023-04-05T16:36:43.762Z,100772.69
2023-04-05T16:39:12.217Z,100770.22
2023-04-05T16:41:40.216Z,100776.22
2023-04-05T16:44:08.147Z,100770.63
2023-04-05T16:46:36.062Z,100771.22
2023-04-05T16:49:05.761Z,100743.59
2023-04-05T16:51:35.588Z,100768.19
2023-04-05T16:54:03.682Z,100708.59
2023-04-05T16:56:31.574Z,100765.72
2023-04-05T16:58:59.705Z,100773.56
2023-04-05T17:01:28.754Z,100747.72
2023-04-05T17:03:59.704Z,100759.22
2023-04-05T17:06:29.383Z,100765.28
2023-04-05T17:08:57.301Z,100766.56
2023-04-05T17:11:25.158Z,100761.06
2023-04-05T17:13:53.374Z,100757.53
2023-04-05T17:16:21.464Z,100767.47
2023-04-05T17:18:49.487Z,100762.19
2023-04-05T17:21:18.232Z,100753.75
2023-04-05T17:23:47.501Z,100754.47
2023-04-05T17:26:15.454Z,100771.13
2023-04-05T17:28:43.412Z,100751.72
2023-04-05T17:31:12.075Z,100739.41
2023-04-05T17:33:40.359Z,100765.31
2023-04-05T17:36:08.756Z,100762.56
2023-04-05T17:38:36.671Z,100760.69
2023-04-05T17:41:06.034Z,100764.28
2023-04-05T17:43:34.042Z,100758.97
2023-04-05T17:46:02.168Z,100763.56
2023-04-05T17:48:30.445Z,100757.50
2023-04-05T17:50:58.366Z,100761.22
2023-04-05T17:53:26.856Z,100635.78
2023-04-05T17:55:56.724Z,100764.91
2023-04-05T17:58:26.203Z,100765.78
2023-04-05T18:00:54.154Z,100764.09
2023-04-05T18:03:22.133Z,100766.91
2023-04-05T18:05:52.216Z,100764.34
2023-04-05T18:08:20.647Z,100749.66
2023-04-05T18:10:50.686Z,100762.94
2023-04-05T18:13:19.459Z,100759.59
2023-04-05T18:15:52.738Z,100756.34
2023-04-05T18:18:20.899Z,100749.53
2023-04-05T18:20:50.541Z,100739.25
2023-04-05T18:23:18.828Z,100760.72
2023-04-05T18:25:46.775Z,100664.19
2023-04-05T18:28:22.414Z,100734.88
2023-04-05T18:30:52.968Z,100768.31
2023-04-05T18:33:22.487Z,100773.75
2023-04-05T18:35:50.932Z,100776.63
2023-04-05T18:38:19.065Z,100780.34
2023-04-05T18:40:47.128Z,100783.13
2023-04-05T18:43:15.299Z,100786.81
2023-04-05T18:45:43.277Z,100765.69
2023-04-05T18:48:13.267Z,100792.47
2023-04-05T18:50:41.324Z,100793.38
2023-04-05T18:53:09.377Z,100798.75
2023-04-05T18:55:37.777Z,100754.91
2023-04-05T18:58:05.889Z,100793.78
2023-04-05T19:00:34.962Z,100798.09
2023-04-05T19:03:02.980Z,100793.69
2023-04-05T19:05:32.409Z,100796.53
2023-04-05T19:08:00.511Z,100798.22
2023-04-05T19:10:28.517Z,100768.50
2023-04-05T19:12:56.595Z,100806.28
2023-04-05T19:15:24.499Z,100744.69
2023-04-05T19:17:52.417Z,100810.88
2023-04-05T19:20:20.446Z,100817.03
2023-04-05T19:22:49.884Z,100804.88
2023-04-05T19:25:18.278Z,100818.16
2023-04-05T19:27:46.331Z,100820.91
2023-04-05T19:30:14.508Z,100760.00
2023-04-05T19:32:42.554Z,100820.94
2023-04-05T19:35:10.915Z,100829.81
2023-04-05T19:37:39.134Z,100747.84
2023-04-05T19:40:09.956Z,100825.47
2023-04-05T19:42:37.970Z,100806.19
2023-04-05T19:45:09.330Z,100811.41
2023-04-05T19:47:43.747Z,100818.47
2023-04-05T19:50:44.205Z,100828.25
2023-04-05T19:53:31.977Z,100826.53
2023-04-05T19:56:01.375Z,100824.88
2023-04-05T19:58:29.288Z,100790.53
2023-04-05T20:00:57.288Z,100820.50
2023-04-05T20:03:30.463Z,100822.19
2023-04-05T20:06:06.232Z,100820.47
2023-04-05T20:08:35.473Z,100733.25
2023-04-05T20:11:10.682Z,100822.31
2023-04-05T20:13:43.424Z,100809.13
2023-04-05T20:16:13.316Z,100694.25
2023-04-05T20:18:44.995Z,100826.38
2023-04-05T20:21:13.316Z,100785.03
2023-04-05T20:23:42.826Z,100817.88
2023-04-05T20:26:15.368Z,100807.47
2023-04-05T20:28:44.562Z,100819.88
2023-04-05T20:31:21.020Z,100809.31
2023-04-05T20:33:50.854Z,100813.72
2023-04-05T20:36:21.110Z,100824.31
2023-04-05T20:38:50.423Z,100822.56
2023-04-05T20:41:21.136Z,100798.78
2023-04-05T20:43:49.004Z,100815.53
2023-04-05T20:46:17.585Z,100809.34
2023-04-05T20:48:46.837Z,100810.22
2023-04-05T20:51:16.167Z,100808.47
2023-04-05T20:53:44.612Z,100784.66
2023-04-05T20:56:13.411Z,100801.41
2023-04-05T20:58:42.963Z,100748.47
2023-04-05T21:01:11.686Z,100806.72
2023-04-05T21:03:41.572Z,100797.91
2023-04-05T21:06:11.081Z,100800.53
2023-04-05T21:08:41.257Z,100806.72
2023-04-05T21:11:10.727Z,100799.66
2023-04-05T21:13:39.141Z,100797.00
2023-04-05T21:16:09.459Z,100802.28
2023-04-05T21:18:37.509Z,100797.88
2023-04-05T21:21:06.015Z,100803.19
2023-04-05T21:23:34.435Z,100802.31
2023-04-05T21:26:04.203Z,100790.84
2023-04-05T21:28:32.334Z,100798.75
2023-04-05T21:31:00.336Z,100774.06
2023-04-05T21:33:29.794Z,100807.59
2023-04-05T21:35:57.761Z,100702.59
2023-04-05T21:38:25.794Z,100744.06
2023-04-05T21:40:55.332Z,100797.00
2023-04-05T21:43:23.785Z,100751.94
2023-04-05T21:45:52.858Z,100783.75
2023-04-05T21:48:21.205Z,100796.97
2023-04-05T21:50:50.584Z,100795.19
2023-04-05T21:53:18.828Z,100812.81
2023-04-05T21:55:46.804Z,100795.19
2023-04-05T21:58:14.741Z,100773.06
2023-04-05T22:00:42.778Z,100797.75
2023-04-05T22:03:10.742Z,100799.56
2023-04-05T22:09:52.517Z,100790.75
2023-04-05T22:12:22.239Z,100804.91
2023-04-05T22:14:50.173Z,100797.81
2023-04-05T22:17:18.570Z,100796.91
2023-04-05T22:19:47.519Z,100800.41
2023-04-05T22:22:15.627Z,100783.66
2023-04-05T22:24:43.888Z,100794.22
2023-04-05T22:27:13.503Z,100788.00
2023-04-05T22:29:41.717Z,100789.78
2023-04-05T22:32:09.823Z,100798.56
2023-04-05T22:34:37.815Z,100803.88
2023-04-05T22:37:05.912Z,100792.44
2023-04-05T22:39:33.813Z,100789.78
2023-04-05T22:42:01.765Z,100780.06
2023-04-05T22:44:31.312Z,100781.84
2023-04-05T22:46:59.315Z,100799.47
2023-04-05T22:49:27.294Z,100779.16
2023-04-05T22:51:55.266Z,100727.00
2023-04-05T22:54:23.224Z,100788.81
2023-04-05T22:56:51.129Z,100786.13
2023-04-05T22:59:19.150Z,100749.88
2023-04-05T23:01:48.643Z,100780.81
2023-04-05T23:04:16.784Z,100784.31
2023-04-05T23:06:44.810Z,100770.22
2023-04-05T23:09:12.776Z,100773.81
2023-04-05T23:11:40.863Z,100720.81
2023-04-05T23:14:09.180Z,100768.47
2023-04-05T23:16:37.429Z,100768.47
2023-04-05T23:19:07.210Z,100770.22
2023-04-05T23:21:35.364Z,100775.41
2023-04-05T23:24:03.308Z,100762.25
2023-04-05T23:26:31.269Z,100765.78
2023-04-05T23:28:59.198Z,100763.09
2023-04-05T23:31:27.217Z,100756.97
2023-04-05T23:33:55.736Z,100755.22
2023-04-05T23:36:25.171Z,100752.53
2023-04-05T23:38:53.056Z,100754.28
2023-04-05T23:41:21.574Z,100757.81
2023-04-05T23:43:49.494Z,100682.00
2023-04-05T23:46:17.589Z,100746.41
2023-04-05T23:48:45.575Z,100742.84
2023-04-05T23:51:13.529Z,100737.53
2023-04-05T23:53:42.836Z,100741.03
2023-04-05T23:56:10.882Z,100738.41
2023-04-05T23:58:38.900Z,100735.69
